»·PEaware :: FDX6113 KLAX-KELP

FDX6113 :: KLAX-KELP

FLIGHT INFORMATION

Flight Status: Arrived
Operator:
Federal Express
More flights by this operator :: More flights under this callsign
Pilot: Anonymous 5456 (5456)
Aircraft: BOEING 767-300
(B763)
More flights by this aircraft type
Origin: KLAX Los Angeles Intl
United States
Destination: KELP El Paso Intl
United States
More flights between these airports :: More routes between these airports
Route: +DOTSS1 CNERY BLH J50 SSO TEEES MOLLY4
File this flight plan on PilotEdge
Remarks:
Altitude:
(Current/Filed)
37,000ft
Speed:
(Current/Filed)
480kts
Departed: 27-Aug-17 08:41 AM
Arrived: 27-Aug-17 10:21 AM
Distance/Time
Traveled:
620nm/1:40
Distance/Time
To Go:
Arrived

Flight Plot

Page will automatically refresh every two minutes.

Flight plan parsing failed; only flown route is shown


Map Options




Map Legend


Flown Route
Filed Route
Departure Airport
Arrival Airport
Navaid (VOR, NDB)
Fix

Horizontal Profiles

Position Reports

Time Latitude Longitude Heading Altitude Ground
Speed
27-Aug-17 08:11 33.933905 -118.389011 173 136ft 0kts
27-Aug-17 08:12 33.933905 -118.389011 173 136ft 0kts
27-Aug-17 08:13 33.933905 -118.389011 173 136ft 0kts
27-Aug-17 08:14 33.933905 -118.389011 173 136ft 0kts
27-Aug-17 08:15 33.933905 -118.389011 173 136ft 0kts
27-Aug-17 08:16 33.933905 -118.389011 173 136ft 0kts
27-Aug-17 08:17 33.933905 -118.389011 173 136ft 0kts
27-Aug-17 08:18 33.933906 -118.389011 173 136ft 0kts
27-Aug-17 08:19 33.934085 -118.389056 158 136ft 2kts
27-Aug-17 08:20 33.934511 -118.389535 113 136ft 2kts
27-Aug-17 08:21 33.934537 -118.390232 77 136ft 2kts
27-Aug-17 08:22 33.934583 -118.390286 343 137ft 1kts
27-Aug-17 08:23 33.934577 -118.390117 356 136ft 0kts
27-Aug-17 08:24 33.934449 -118.389800 5 137ft 0kts
27-Aug-17 08:25 33.934449 -118.389800 5 137ft 0kts
27-Aug-17 08:26 33.934449 -118.389800 5 137ft 0kts
27-Aug-17 08:27 33.934453 -118.389577 5 136ft 0kts
27-Aug-17 08:28 33.934453 -118.389577 5 136ft 0kts
27-Aug-17 08:29 33.934453 -118.389577 5 136ft 0kts
27-Aug-17 08:30 33.934453 -118.389577 5 136ft 0kts
27-Aug-17 08:31 33.934453 -118.389577 5 136ft 0kts
27-Aug-17 08:32 33.934453 -118.389577 5 136ft 0kts
27-Aug-17 08:33 33.934453 -118.389577 5 136ft 0kts
27-Aug-17 08:34 33.934453 -118.389577 5 136ft 0kts
27-Aug-17 08:35 33.935333 -118.389174 42 136ft 11kts
27-Aug-17 08:36 33.935835 -118.385556 82 136ft 13kts
27-Aug-17 08:37 33.936101 -118.383152 64 136ft 0kts
27-Aug-17 08:38 33.936101 -118.383152 64 136ft 0kts
27-Aug-17 08:39 33.936101 -118.383152 64 136ft 0kts
27-Aug-17 08:40 33.936101 -118.383152 64 136ft 0kts
27-Aug-17 08:41 33.936101 -118.383152 64 136ft 0kts
27-Aug-17 08:42 33.936101 -118.383152 64 136ft 0kts
27-Aug-17 08:43 33.936399 -118.382888 18 136ft 7kts
27-Aug-17 08:44 33.939214 -118.383183 331 136ft 8kts
27-Aug-17 08:45 33.936655 -118.409797 262 700ft 201kts
27-Aug-17 08:46 33.915708 -118.481809 233 4346ft 254kts
27-Aug-17 08:47 33.870075 -118.547703 219 5257ft 261kts
27-Aug-17 08:48 33.801552 -118.548464 169 9411ft 263kts
27-Aug-17 08:49 33.723499 -118.526524 157 12240ft 330kts
27-Aug-17 08:50 33.671827 -118.439464 110 15726ft 368kts
27-Aug-17 08:51 33.645837 -118.339590 99 18297ft 393kts
27-Aug-17 08:52 33.644669 -118.205494 91 21494ft 416kts
27-Aug-17 08:53 33.644608 -118.072293 90 24176ft 435kts
27-Aug-17 08:54 33.644358 -117.900140 90 27175ft 455kts
27-Aug-17 08:55 33.638336 -117.777133 103 29038ft 467kts
27-Aug-17 08:56 33.602830 -117.627949 105 31144ft 481kts
27-Aug-17 08:57 33.564932 -117.474455 105 33471ft 483kts
27-Aug-17 08:58 33.527316 -117.323280 106 35818ft 476kts
27-Aug-17 08:59 33.504538 -117.175108 90 36994ft 475kts
27-Aug-17 09:00 33.502056 -117.022199 89 36985ft 468kts
27-Aug-17 09:01 33.499835 -116.873178 89 36973ft 465kts
27-Aug-17 09:02 33.497383 -116.719342 89 36936ft 466kts
27-Aug-17 09:03 33.494731 -116.564732 89 36901ft 466kts
27-Aug-17 09:04 33.491943 -116.410500 89 36854ft 466kts
27-Aug-17 09:05 33.489696 -116.257730 90 36844ft 466kts
27-Aug-17 09:06 33.487210 -116.102828 90 36844ft 466kts
27-Aug-17 09:07 33.510363 -115.953293 70 36852ft 463kts
27-Aug-17 09:08 33.552269 -115.807991 69 36844ft 463kts
27-Aug-17 09:09 33.594525 -115.662490 69 36844ft 463kts
27-Aug-17 09:10 33.627283 -115.514013 87 36841ft 465kts
27-Aug-17 09:11 33.618650 -115.359354 91 36862ft 466kts
27-Aug-17 09:12 33.612778 -115.206284 91 36908ft 466kts
27-Aug-17 09:13 33.607122 -115.051476 91 36916ft 463kts
27-Aug-17 09:14 33.601353 -114.897841 91 36917ft 462kts
27-Aug-17 09:15 33.594869 -114.744718 94 36914ft 462kts
27-Aug-17 09:16 33.581279 -114.594330 95 36917ft 462kts
27-Aug-17 09:17 33.567633 -114.442849 95 36917ft 462kts
27-Aug-17 09:18 33.556293 -114.318390 95 36917ft 462kts
27-Aug-17 09:19 33.543601 -114.180687 95 36917ft 462kts
27-Aug-17 09:20 33.529393 -114.028544 95 36917ft 462kts
27-Aug-17 09:21 33.514944 -113.875881 95 36917ft 462kts
27-Aug-17 09:22 33.500318 -113.723382 95 36921ft 462kts
27-Aug-17 09:23 33.485552 -113.571399 95 36962ft 462kts
27-Aug-17 09:24 33.470385 -113.419012 97 36979ft 462kts
27-Aug-17 09:25 33.420748 -113.293505 130 36986ft 466kts
27-Aug-17 09:26 33.335938 -113.178153 131 36982ft 466kts
27-Aug-17 09:27 33.250599 -113.064146 131 36982ft 466kts
27-Aug-17 09:28 33.164587 -112.949766 131 36982ft 468kts
27-Aug-17 09:29 33.077626 -112.834477 131 36982ft 472kts
27-Aug-17 09:30 32.990690 -112.717918 127 36976ft 474kts
27-Aug-17 09:31 32.947392 -112.572450 95 36992ft 475kts
27-Aug-17 09:32 32.933114 -112.416496 95 36987ft 475kts
27-Aug-17 09:33 32.919433 -112.267313 96 36996ft 475kts
27-Aug-17 09:34 32.905031 -112.112168 96 37020ft 475kts
27-Aug-17 09:35 32.891079 -111.963793 96 37026ft 475kts
27-Aug-17 09:36 32.864082 -111.811198 104 37030ft 476kts
27-Aug-17 09:37 32.830589 -111.660039 104 37028ft 475kts
27-Aug-17 09:38 32.796715 -111.508717 104 37039ft 475kts
27-Aug-17 09:39 32.762665 -111.357574 104 37062ft 475kts
27-Aug-17 09:40 32.729319 -111.210431 105 37063ft 475kts
27-Aug-17 09:41 32.694814 -111.059122 105 37062ft 477kts
27-Aug-17 09:42 32.660063 -110.907673 104 37064ft 481kts
27-Aug-17 09:43 32.624858 -110.755049 104 37081ft 481kts
27-Aug-17 09:44 32.589437 -110.602460 104 37102ft 481kts
27-Aug-17 09:45 32.553941 -110.450524 104 37102ft 481kts
27-Aug-17 09:46 32.519271 -110.302979 105 37116ft 481kts
27-Aug-17 09:47 32.483279 -110.150712 105 37152ft 481kts
27-Aug-17 09:48 32.447246 -109.999156 105 37151ft 481kts
27-Aug-17 09:49 32.410978 -109.847500 105 37156ft 481kts
27-Aug-17 09:50 32.374583 -109.696189 105 37156ft 481kts
27-Aug-17 09:51 32.337985 -109.544909 105 37157ft 481kts
27-Aug-17 09:52 32.301070 -109.393190 105 37162ft 481kts
27-Aug-17 09:53 32.270502 -109.245916 92 37164ft 479kts
27-Aug-17 09:54 32.270116 -109.089133 88 37186ft 478kts
27-Aug-17 09:55 32.270578 -108.932185 88 37210ft 477kts
27-Aug-17 09:56 32.270910 -108.776305 88 37284ft 477kts
27-Aug-17 09:57 32.271048 -108.620174 88 37321ft 477kts
27-Aug-17 09:58 32.270993 -108.463913 88 37315ft 470kts
27-Aug-17 09:59 32.270786 -108.328458 88 37013ft 445kts
27-Aug-17 10:00 32.261561 -108.179962 96 34162ft 467kts
27-Aug-17 10:01 32.244338 -108.027907 96 32196ft 459kts
27-Aug-17 10:02 32.227765 -107.884350 95 27937ft 435kts
27-Aug-17 10:03 32.212143 -107.749539 94 24316ft 404kts
27-Aug-17 10:04 32.197358 -107.621844 94 23856ft 397kts
27-Aug-17 10:05 32.182104 -107.493874 105 21026ft 390kts
27-Aug-17 10:06 32.151752 -107.373515 94 19896ft 381kts
27-Aug-17 10:07 32.141046 -107.253117 92 18403ft 371kts
27-Aug-17 10:08 32.132250 -107.133735 92 16805ft 365kts
27-Aug-17 10:09 32.123621 -107.016354 92 14867ft 347kts
27-Aug-17 10:10 32.104697 -106.905632 101 13605ft 342kts
27-Aug-17 10:11 32.081084 -106.798901 103 12258ft 335kts
27-Aug-17 10:12 32.029806 -106.711041 153 10311ft 354kts
27-Aug-17 10:13 31.926448 -106.669087 159 10562ft 451kts
27-Aug-17 10:14 31.832242 -106.604773 128 10533ft 374kts
27-Aug-17 10:15 31.787072 -106.518140 96 10727ft 269kts
27-Aug-17 10:16 31.829975 -106.456461 0 9967ft 286kts
27-Aug-17 10:17 31.886307 -106.511669 307 9007ft 264kts
27-Aug-17 10:18 31.919143 -106.582633 266 9019ft 253kts
27-Aug-17 10:19 31.868077 -106.635118 197 8235ft 263kts
27-Aug-17 10:20 31.802223 -106.615876 155 7989ft 247kts
27-Aug-17 10:21 31.739136 -106.585488 147 7980ft 243kts
27-Aug-17 10:22 31.728806 -106.517919 76 7957ft 230kts
27-Aug-17 10:23 31.762984 -106.454518 45 5392ft 225kts
27-Aug-17 10:24 31.793451 -106.411250 47 4322ft 145kts
27-Aug-17 10:25 31.812561 -106.384398 59 3969ft 15kts
27-Aug-17 10:26 31.813567 -106.379739 77 3969ft 26kts
27-Aug-17 10:27 31.814385 -106.376638 49 3969ft 17kts
27-Aug-17 10:28 31.818486 -106.370931 48 3969ft 27kts
27-Aug-17 10:29 31.820409 -106.365976 130 3969ft 8kts
27-Aug-17 10:30 31.820048 -106.365579 140 3969ft 0kts
27-Aug-17 10:31 31.820048 -106.365579 140 3969ft 0kts

Navigation Log

Ident Type
Flight plan parsing failed, navigation log unavailable